createdAt,value
2017-08-24T00:00:06.642Z,991.4
2017-08-24T00:01:07.422Z,991.3
2017-08-24T00:02:08.192Z,991.3
2017-08-24T00:03:08.923Z,991.3
2017-08-24T00:04:09.709Z,991.3
2017-08-24T00:05:10.782Z,991.3
2017-08-24T00:06:11.616Z,991.3
2017-08-24T00:07:12.516Z,991.3
2017-08-24T00:08:13.169Z,991.3
2017-08-24T00:09:14.442Z,991.3
2017-08-24T00:10:15.135Z,991.3
2017-08-24T00:11:15.935Z,991.3
2017-08-24T00:12:16.676Z,991.3
2017-08-24T00:13:17.635Z,991.3
2017-08-24T00:14:18.368Z,991.3
2017-08-24T00:15:19.375Z,991.3
2017-08-24T00:17:35.885Z,991.3
2017-08-24T00:18:36.612Z,991.3
2017-08-24T00:19:37.473Z,991.2
2017-08-24T00:20:38.222Z,991.3
2017-08-24T00:21:39.071Z,991.3
2017-08-24T00:22:39.788Z,991.2
2017-08-24T00:23:40.597Z,991.2
2017-08-24T00:24:41.369Z,991.2
2017-08-24T00:25:42.106Z,991.2
2017-08-24T00:26:43.157Z,991.2
2017-08-24T00:27:44.077Z,991.2
2017-08-24T00:28:44.889Z,991.2
2017-08-24T00:29:45.611Z,991.2
2017-08-24T00:30:46.746Z,991.2
2017-08-24T00:31:47.507Z,991.1
2017-08-24T00:32:48.221Z,991.1
2017-08-24T00:33:48.982Z,991.2
2017-08-24T00:34:49.768Z,991.1
2017-08-24T00:35:50.556Z,991.1
2017-08-24T00:36:51.367Z,991.1
2017-08-24T00:37:52.512Z,991.1
2017-08-24T00:38:53.379Z,991.0
2017-08-24T00:39:54.150Z,991.0
2017-08-24T00:40:55.556Z,991.0
2017-08-24T00:41:56.503Z,991.0
2017-08-24T00:42:57.774Z,991.0
2017-08-24T00:43:58.596Z,991.1
2017-08-24T00:44:59.291Z,991.1
2017-08-24T00:46:00.193Z,991.1
2017-08-24T00:47:01.282Z,991.1
2017-08-24T00:48:02.096Z,991.1
2017-08-24T00:49:03.037Z,991.0
2017-08-24T00:50:03.870Z,991.0
2017-08-24T00:52:20.270Z,991.0
2017-08-24T00:53:21.004Z,991.0
2017-08-24T00:54:21.710Z,991.1
2017-08-24T00:55:22.643Z,991.0
2017-08-24T00:56:23.615Z,991.1
2017-08-24T00:57:24.350Z,991.0
2017-08-24T00:58:25.157Z,991.0
2017-08-24T00:59:26.113Z,991.0
2017-08-24T01:00:27.136Z,991.0
2017-08-24T01:01:28.027Z,991.0
2017-08-24T01:02:28.732Z,991.0
2017-08-24T01:03:29.671Z,991.0
2017-08-24T01:04:30.717Z,991.0
2017-08-24T01:05:31.472Z,991.0
2017-08-24T01:06:32.558Z,991.0
2017-08-24T01:07:33.334Z,991.0
2017-08-24T01:08:34.287Z,991.0
2017-08-24T01:09:35.058Z,990.9
2017-08-24T01:10:35.859Z,990.9
2017-08-24T01:11:36.600Z,990.9
2017-08-24T01:12:37.403Z,990.9
2017-08-24T01:13:38.079Z,990.9
2017-08-24T01:14:38.836Z,990.9
2017-08-24T01:15:39.924Z,991.0
2017-08-24T01:16:40.655Z,991.0
2017-08-24T01:17:41.399Z,990.9
2017-08-24T01:18:42.456Z,990.9
2017-08-24T01:19:43.303Z,990.9
2017-08-24T01:20:44.065Z,990.9
2017-08-24T01:21:45.068Z,990.9
2017-08-24T01:22:45.816Z,990.9
2017-08-24T01:23:46.746Z,990.9
2017-08-24T01:24:47.603Z,990.9
2017-08-24T01:25:48.397Z,990.9
2017-08-24T01:26:49.149Z,990.9
2017-08-24T01:27:49.868Z,990.9
2017-08-24T01:28:50.672Z,990.9
2017-08-24T01:29:51.435Z,990.9
2017-08-24T01:30:52.275Z,990.8
2017-08-24T01:31:53.083Z,990.9
2017-08-24T01:32:53.844Z,990.9
2017-08-24T01:33:54.774Z,990.8
2017-08-24T01:34:55.600Z,990.8
2017-08-24T01:35:56.290Z,990.8
2017-08-24T01:37:02.425Z,990.8
2017-08-24T01:38:03.176Z,990.8
2017-08-24T01:39:04.158Z,990.7
2017-08-24T01:41:20.490Z,990.7
2017-08-24T01:42:21.200Z,990.7
2017-08-24T01:43:22.079Z,990.7
2017-08-24T01:44:22.892Z,990.6
2017-08-24T01:45:23.856Z,990.7
2017-08-24T01:46:24.594Z,990.7
2017-08-24T01:47:25.519Z,990.7
2017-08-24T01:48:26.345Z,990.6
2017-08-24T01:49:27.153Z,990.6
2017-08-24T01:50:27.862Z,990.7
2017-08-24T01:51:28.640Z,990.6
2017-08-24T01:52:29.645Z,990.6
2017-08-24T01:53:30.337Z,990.6
2017-08-24T01:54:31.152Z,990.6
2017-08-24T01:55:32.155Z,990.6
2017-08-24T01:56:32.839Z,990.6
2017-08-24T01:57:33.591Z,990.6
2017-08-24T01:58:34.359Z,990.5
2017-08-24T01:59:35.069Z,990.6
2017-08-24T02:00:36.142Z,990.6
2017-08-24T02:01:37.007Z,990.5
2017-08-24T02:02:38.021Z,990.5
2017-08-24T02:03:38.756Z,990.5
2017-08-24T02:04:39.546Z,990.5
2017-08-24T02:05:40.289Z,990.5
2017-08-24T02:06:41.128Z,990.5
2017-08-24T02:07:41.907Z,990.5
2017-08-24T02:08:42.633Z,990.5
2017-08-24T02:09:43.567Z,990.5
2017-08-24T02:10:44.323Z,990.5
2017-08-24T02:11:45.208Z,990.5
2017-08-24T02:12:45.999Z,990.5
2017-08-24T02:13:46.675Z,990.5
2017-08-24T02:14:47.513Z,990.5
2017-08-24T02:15:48.289Z,990.5
2017-08-24T02:16:49.044Z,990.5
2017-08-24T02:17:49.767Z,990.5
2017-08-24T02:18:50.524Z,990.5
2017-08-24T02:19:51.311Z,990.4
2017-08-24T02:20:52.180Z,990.4
2017-08-24T02:21:52.956Z,990.4
2017-08-24T02:22:53.692Z,990.4
2017-08-24T02:23:54.420Z,990.4
2017-08-24T02:26:10.745Z,990.4
2017-08-24T02:27:11.734Z,990.3
2017-08-24T02:28:12.491Z,990.3
2017-08-24T02:29:13.203Z,990.3
2017-08-24T02:30:14.412Z,990.3
2017-08-24T02:31:15.418Z,990.3
2017-08-24T02:32:16.118Z,990.3
2017-08-24T02:33:16.899Z,990.3
2017-08-24T02:34:17.697Z,990.2
2017-08-24T02:35:18.509Z,990.3
2017-08-24T02:36:19.368Z,990.2
2017-08-24T02:37:20.432Z,990.2
2017-08-24T02:38:21.170Z,990.2
2017-08-24T02:39:21.943Z,990.2
2017-08-24T02:40:22.683Z,990.1
2017-08-24T02:41:23.610Z,990.1
2017-08-24T02:42:24.451Z,990.1
2017-08-24T02:43:25.123Z,990.1
2017-08-24T02:44:26.120Z,990.1
2017-08-24T02:45:27.061Z,990.2
2017-08-24T02:46:27.831Z,990.1
2017-08-24T02:47:28.675Z,990.1
2017-08-24T02:48:29.380Z,990.1
2017-08-24T02:49:30.289Z,990.1
2017-08-24T02:50:31.054Z,990.1
2017-08-24T02:51:31.856Z,990.1
2017-08-24T02:52:32.578Z,990.1
2017-08-24T02:53:33.435Z,990.1
2017-08-24T02:54:34.160Z,990.1
2017-08-24T02:55:34.967Z,990.1
2017-08-24T02:56:35.902Z,990.2
2017-08-24T02:57:36.657Z,990.1
2017-08-24T02:58:37.352Z,990.2
2017-08-24T02:59:38.252Z,990.1
2017-08-24T03:00:39.101Z,990.1
2017-08-24T03:01:40.063Z,990.1
2017-08-24T03:02:40.763Z,990.1
2017-08-24T03:03:41.636Z,990.1
2017-08-24T03:04:42.665Z,990.1
2017-08-24T03:05:43.442Z,990.1
2017-08-24T03:06:44.470Z,990.1
2017-08-24T03:07:45.477Z,990.1
2017-08-24T03:08:46.308Z,990.1
2017-08-24T03:09:47.030Z,990.1
2017-08-24T03:10:47.882Z,990.2
2017-08-24T03:11:48.721Z,990.2
2017-08-24T03:12:49.461Z,990.2
2017-08-24T03:13:50.399Z,990.2
2017-08-24T03:14:52.045Z,990.2
2017-08-24T03:15:52.962Z,990.1
2017-08-24T03:16:53.774Z,990.1
2017-08-24T03:17:54.517Z,990.1
2017-08-24T03:18:55.290Z,990.1
2017-08-24T03:19:56.113Z,990.2
2017-08-24T03:20:57.082Z,990.2
2017-08-24T03:21:57.813Z,990.2
2017-08-24T03:22:58.584Z,990.2
2017-08-24T03:23:59.278Z,990.1
2017-08-24T03:25:00.074Z,990.2
2017-08-24T03:26:00.955Z,990.1
2017-08-24T03:27:01.771Z,990.1
2017-08-24T03:28:02.482Z,990.1
2017-08-24T03:29:03.462Z,990.1
2017-08-24T03:30:04.602Z,990.1
2017-08-24T03:31:05.409Z,990.1
2017-08-24T03:32:06.360Z,990.1
2017-08-24T03:33:07.095Z,990.1
2017-08-24T03:34:07.904Z,990.1
2017-08-24T03:35:08.992Z,990.1
2017-08-24T03:36:12.899Z,990.1
2017-08-24T03:37:13.786Z,990.1
2017-08-24T03:38:14.807Z,990.1
2017-08-24T03:39:15.517Z,990.1
2017-08-24T03:40:16.499Z,990.1
2017-08-24T03:41:17.428Z,990.0
2017-08-24T03:42:18.184Z,990.1
2017-08-24T03:43:18.964Z,990.1
2017-08-24T03:44:19.767Z,990.0
2017-08-24T03:45:20.690Z,990.0
2017-08-24T03:46:21.642Z,990.1
2017-08-24T03:47:22.420Z,990.0
2017-08-24T03:48:23.155Z,990.0
2017-08-24T03:49:23.878Z,990.1
2017-08-24T03:50:24.612Z,990.0
2017-08-24T03:51:25.689Z,990.0
2017-08-24T03:52:26.448Z,990.0
2017-08-24T03:53:27.145Z,990.1
2017-08-24T03:54:27.934Z,990.0
2017-08-24T03:55:28.773Z,990.1
2017-08-24T03:56:29.784Z,990.0
2017-08-24T03:57:30.557Z,990.0
2017-08-24T03:58:31.370Z,990.0
2017-08-24T03:59:32.258Z,990.0
2017-08-24T04:00:33.119Z,990.1
2017-08-24T04:01:33.919Z,990.0
2017-08-24T04:02:34.801Z,990.0
2017-08-24T04:03:35.592Z,990.0
2017-08-24T04:04:36.724Z,990.0
2017-08-24T04:05:37.678Z,990.1
2017-08-24T04:06:38.388Z,990.0
2017-08-24T04:07:39.356Z,990.0
2017-08-24T04:08:40.280Z,990.0
2017-08-24T04:09:41.044Z,990.0
2017-08-24T04:10:41.725Z,990.0
2017-08-24T04:11:42.530Z,990.0
2017-08-24T04:12:43.237Z,989.9
2017-08-24T04:13:44.024Z,990.0
2017-08-24T04:14:44.805Z,989.9
2017-08-24T04:15:45.644Z,989.9
2017-08-24T04:16:46.349Z,990.0
2017-08-24T04:17:47.082Z,990.0
2017-08-24T04:18:47.950Z,989.9
2017-08-24T04:19:48.694Z,989.9
2017-08-24T04:20:49.383Z,989.9
2017-08-24T04:21:50.112Z,989.9
2017-08-24T04:22:50.927Z,989.9
2017-08-24T04:23:51.935Z,989.9
2017-08-24T04:24:53.237Z,989.9
2017-08-24T04:25:54.097Z,989.9
2017-08-24T04:26:54.860Z,989.9
2017-08-24T04:27:56.194Z,989.9
2017-08-24T04:28:56.865Z,989.9
2017-08-24T04:29:57.618Z,989.8
2017-08-24T04:30:58.416Z,989.8
2017-08-24T04:31:59.214Z,989.8
2017-08-24T04:33:00.043Z,989.8
2017-08-24T04:34:00.801Z,989.9
2017-08-24T04:35:01.600Z,989.9
2017-08-24T04:36:02.442Z,989.9
2017-08-24T04:37:03.216Z,989.9
2017-08-24T04:38:03.902Z,989.9
2017-08-24T04:39:04.990Z,989.9
2017-08-24T04:40:05.766Z,989.9
2017-08-24T04:41:06.678Z,989.9
2017-08-24T04:42:07.347Z,990.0
2017-08-24T04:43:08.123Z,989.9
2017-08-24T04:44:08.895Z,990.0
2017-08-24T04:45:09.821Z,990.0
2017-08-24T04:46:11.294Z,990.0
2017-08-24T04:47:12.074Z,990.0
2017-08-24T04:48:12.750Z,990.0
2017-08-24T04:49:13.870Z,990.0
2017-08-24T04:50:14.633Z,990.0
2017-08-24T04:51:15.408Z,990.0
2017-08-24T04:52:16.247Z,990.0
2017-08-24T04:53:17.012Z,990.0
2017-08-24T04:54:18.409Z,990.0
2017-08-24T04:55:19.274Z,990.0
2017-08-24T04:56:20.613Z,990.0
2017-08-24T04:57:21.443Z,990.0
2017-08-24T04:58:22.281Z,989.9
2017-08-24T04:59:23.086Z,989.9
2017-08-24T05:00:23.930Z,989.9
2017-08-24T05:01:24.836Z,989.9
2017-08-24T05:02:25.557Z,989.9
2017-08-24T05:03:26.672Z,989.9
2017-08-24T05:05:42.955Z,989.9
2017-08-24T05:06:43.948Z,989.9
2017-08-24T05:07:44.826Z,989.9
2017-08-24T05:08:45.538Z,989.9
2017-08-24T05:09:46.445Z,989.9
2017-08-24T05:10:47.291Z,989.8
2017-08-24T05:11:48.253Z,989.8
2017-08-24T05:12:48.985Z,989.9
2017-08-24T05:13:49.751Z,989.9
2017-08-24T05:14:50.651Z,989.9
2017-08-24T05:15:51.416Z,989.9
2017-08-24T05:16:52.260Z,989.9
2017-08-24T05:17:53.062Z,989.9
2017-08-24T05:18:53.855Z,989.9
2017-08-24T05:19:54.802Z,989.9
2017-08-24T05:20:55.578Z,989.8
2017-08-24T05:21:56.576Z,989.9
2017-08-24T05:22:58.035Z,989.9
2017-08-24T05:23:59.079Z,989.8
2017-08-24T05:25:02.179Z,989.8
2017-08-24T05:26:03.117Z,989.8
2017-08-24T05:27:04.076Z,989.9
2017-08-24T05:28:05.709Z,989.9
2017-08-24T05:29:06.396Z,989.9
2017-08-24T05:30:07.312Z,989.9
2017-08-24T05:31:08.181Z,989.9
2017-08-24T05:32:08.987Z,989.9
2017-08-24T05:33:10.052Z,989.9
2017-08-24T05:34:10.838Z,989.9
2017-08-24T05:35:11.580Z,989.9
2017-08-24T05:36:12.313Z,989.9
2017-08-24T05:37:13.078Z,989.9
2017-08-24T05:38:13.936Z,989.9
2017-08-24T05:39:15.397Z,989.8
2017-08-24T05:40:16.151Z,989.9
2017-08-24T05:41:16.889Z,989.9
2017-08-24T05:42:17.697Z,989.9
2017-08-24T05:43:18.569Z,989.9
2017-08-24T05:44:19.503Z,989.9
2017-08-24T05:45:20.419Z,989.9
2017-08-24T05:46:21.128Z,989.9
2017-08-24T05:47:21.897Z,989.9
2017-08-24T05:48:22.719Z,989.9
2017-08-24T05:49:23.405Z,989.9
2017-08-24T05:50:24.373Z,989.9
2017-08-24T05:51:25.217Z,989.9
2017-08-24T05:52:25.948Z,989.9
2017-08-24T05:53:26.635Z,989.9
2017-08-24T05:54:27.469Z,989.9
2017-08-24T05:55:28.180Z,989.9
2017-08-24T05:56:28.902Z,989.9
2017-08-24T05:57:29.889Z,989.9
2017-08-24T05:58:30.860Z,989.8
2017-08-24T05:59:31.571Z,989.9
2017-08-24T06:00:32.515Z,989.9
2017-08-24T06:01:33.371Z,989.8
2017-08-24T06:02:34.170Z,989.9
2017-08-24T06:03:34.931Z,989.8
2017-08-24T06:04:35.676Z,989.8
2017-08-24T06:05:37.082Z,989.8
2017-08-24T06:06:37.744Z,989.8
2017-08-24T06:07:38.553Z,989.8
2017-08-24T06:08:39.715Z,989.8
2017-08-24T06:09:40.428Z,989.8
2017-08-24T06:10:41.463Z,989.8
2017-08-24T06:11:42.192Z,989.8
2017-08-24T06:12:43.016Z,989.8
2017-08-24T06:13:43.825Z,989.8
2017-08-24T06:14:44.560Z,989.8
2017-08-24T06:15:45.408Z,989.8
2017-08-24T06:16:46.267Z,989.8
2017-08-24T06:17:47.077Z,989.8
2017-08-24T06:18:48.087Z,989.8
2017-08-24T06:19:48.891Z,989.8
2017-08-24T06:20:49.654Z,989.9
2017-08-24T06:21:50.405Z,989.9
2017-08-24T06:22:51.097Z,989.8
2017-08-24T06:23:51.801Z,989.9
2017-08-24T06:24:52.591Z,989.9
2017-08-24T06:25:53.462Z,989.9
2017-08-24T06:26:54.197Z,989.9
2017-08-24T06:27:55.024Z,989.8
2017-08-24T06:28:55.801Z,989.8
2017-08-24T06:29:57.822Z,989.9
2017-08-24T06:30:58.434Z,989.9
2017-08-24T06:31:59.196Z,989.9
2017-08-24T06:33:00.063Z,989.9
2017-08-24T06:34:00.774Z,989.8
2017-08-24T06:35:01.534Z,989.8
2017-08-24T06:36:02.623Z,989.8
2017-08-24T06:37:03.465Z,989.8
2017-08-24T06:38:04.301Z,989.8
2017-08-24T06:39:04.992Z,989.8
2017-08-24T06:40:05.729Z,989.9
2017-08-24T06:41:06.526Z,989.9
2017-08-24T06:42:07.495Z,989.9
2017-08-24T06:43:08.317Z,989.9
2017-08-24T06:44:09.224Z,989.9
2017-08-24T06:45:10.180Z,989.9
2017-08-24T06:46:10.966Z,989.9
2017-08-24T06:47:11.696Z,989.9
2017-08-24T06:48:12.957Z,989.9
2017-08-24T06:49:13.666Z,989.8
2017-08-24T06:50:14.520Z,989.8
2017-08-24T06:51:15.487Z,989.9
2017-08-24T06:52:16.201Z,989.9
2017-08-24T06:53:17.002Z,989.9
2017-08-24T06:54:17.708Z,989.9
2017-08-24T06:55:18.457Z,989.9
2017-08-24T06:56:19.171Z,989.9
2017-08-24T06:57:20.091Z,989.9
2017-08-24T06:58:20.760Z,989.9
2017-08-24T06:59:21.493Z,989.9
2017-08-24T07:00:22.239Z,989.9
2017-08-24T07:01:23.059Z,989.9
2017-08-24T07:02:23.850Z,989.9
2017-08-24T07:03:24.601Z,989.9
2017-08-24T07:04:25.354Z,989.9
2017-08-24T07:05:26.101Z,989.9
2017-08-24T07:06:26.854Z,989.9
2017-08-24T07:07:27.800Z,989.9
2017-08-24T07:08:28.734Z,989.9
2017-08-24T07:09:29.798Z,989.9
2017-08-24T07:10:30.541Z,989.9
2017-08-24T07:11:31.591Z,989.9
2017-08-24T07:12:32.342Z,989.9
2017-08-24T07:13:33.082Z,989.9
2017-08-24T07:14:33.808Z,989.9
2017-08-24T07:15:34.718Z,989.9
2017-08-24T07:16:35.519Z,989.9
2017-08-24T07:17:36.249Z,989.9
2017-08-24T07:18:36.986Z,989.9
2017-08-24T07:19:37.914Z,989.9
2017-08-24T07:20:38.726Z,990.0
2017-08-24T07:21:40.182Z,989.9
2017-08-24T07:22:40.935Z,989.9
2017-08-24T07:23:41.790Z,989.9
2017-08-24T07:24:42.733Z,989.9
2017-08-24T07:25:43.415Z,989.9
2017-08-24T07:26:44.194Z,989.9
2017-08-24T07:27:44.966Z,989.9
2017-08-24T07:28:45.676Z,990.0
2017-08-24T07:29:46.420Z,990.0
2017-08-24T07:30:47.221Z,990.0
2017-08-24T07:31:48.084Z,990.0
2017-08-24T07:32:48.896Z,990.0
2017-08-24T07:33:50.390Z,990.0
2017-08-24T07:34:51.347Z,990.0
2017-08-24T07:35:52.084Z,990.1
2017-08-24T07:36:53.184Z,990.1
2017-08-24T07:37:53.874Z,990.1
2017-08-24T07:38:54.861Z,990.0
2017-08-24T07:39:55.905Z,990.0
2017-08-24T07:40:56.755Z,990.0
2017-08-24T07:41:57.572Z,990.1
2017-08-24T07:42:58.385Z,990.1
2017-08-24T07:43:59.122Z,990.2
2017-08-24T07:44:59.864Z,990.2
2017-08-24T07:46:00.774Z,990.1
2017-08-24T07:47:01.549Z,990.1
2017-08-24T07:48:02.307Z,990.2
2017-08-24T07:49:02.985Z,990.2
2017-08-24T07:50:03.719Z,990.2
2017-08-24T07:51:04.729Z,990.2
2017-08-24T07:52:05.501Z,990.2
2017-08-24T07:53:06.376Z,990.2
2017-08-24T07:54:07.100Z,990.2
2017-08-24T07:55:08.000Z,990.3
2017-08-24T07:56:08.717Z,990.2
2017-08-24T07:57:09.468Z,990.2
2017-08-24T07:58:10.272Z,990.2
2017-08-24T07:59:11.248Z,990.2
2017-08-24T08:00:12.071Z,990.2
2017-08-24T08:01:12.915Z,990.2
2017-08-24T08:02:14.106Z,990.2
2017-08-24T08:03:14.851Z,990.2
2017-08-24T08:04:15.593Z,990.2
2017-08-24T08:05:16.344Z,990.3
2017-08-24T08:06:17.117Z,990.3
2017-08-24T08:07:17.868Z,990.3
2017-08-24T08:08:18.636Z,990.3
2017-08-24T08:09:19.390Z,990.3
2017-08-24T08:10:20.683Z,990.2
2017-08-24T08:11:21.406Z,990.2
2017-08-24T08:12:22.223Z,990.2
2017-08-24T08:13:22.965Z,990.2
2017-08-24T08:14:23.721Z,990.3
2017-08-24T08:16:40.117Z,990.3
2017-08-24T08:17:41.116Z,990.3
2017-08-24T08:18:41.877Z,990.3
2017-08-24T08:19:42.649Z,990.3
2017-08-24T08:20:43.416Z,990.4
2017-08-24T08:21:44.210Z,990.4
2017-08-24T08:22:45.242Z,990.4
2017-08-24T08:23:46.114Z,990.4
2017-08-24T08:24:46.815Z,990.4
2017-08-24T08:25:47.612Z,990.5
2017-08-24T08:26:48.352Z,990.5
2017-08-24T08:27:49.106Z,990.4
2017-08-24T08:28:49.837Z,990.5
2017-08-24T08:29:50.616Z,990.4
2017-08-24T08:30:51.372Z,990.5
2017-08-24T08:31:52.171Z,990.4
2017-08-24T08:32:52.953Z,990.5
2017-08-24T08:33:53.738Z,990.5
2017-08-24T08:34:54.505Z,990.5
2017-08-24T08:35:55.240Z,990.5
2017-08-24T08:36:56.064Z,990.5
2017-08-24T08:37:57.019Z,990.5
2017-08-24T08:38:57.742Z,990.5
2017-08-24T08:39:58.929Z,990.5
2017-08-24T08:40:59.599Z,990.5
2017-08-24T08:42:00.662Z,990.5
2017-08-24T08:43:01.374Z,990.6
2017-08-24T08:44:02.108Z,990.6
2017-08-24T08:45:02.941Z,990.6
2017-08-24T08:46:03.763Z,990.6
2017-08-24T08:47:04.784Z,990.6
2017-08-24T08:48:05.537Z,990.6
2017-08-24T08:49:06.337Z,990.6
2017-08-24T08:50:07.094Z,990.6
2017-08-24T08:51:07.888Z,990.6
2017-08-24T08:52:08.579Z,990.6
2017-08-24T08:53:09.484Z,990.6
2017-08-24T08:54:10.264Z,990.6
2017-08-24T08:55:11.031Z,990.6
2017-08-24T08:56:12.020Z,990.6
2017-08-24T08:57:12.752Z,990.6
2017-08-24T08:58:13.529Z,990.6
2017-08-24T08:59:14.342Z,990.6
2017-08-24T09:00:15.126Z,990.6
2017-08-24T09:01:15.852Z,990.6
2017-08-24T09:02:16.768Z,990.6
2017-08-24T09:03:17.700Z,990.6
2017-08-24T09:04:18.424Z,990.6
2017-08-24T09:05:19.148Z,990.7
2017-08-24T09:06:19.921Z,990.6
2017-08-24T09:07:20.840Z,990.6
2017-08-24T09:08:21.741Z,990.7
2017-08-24T09:09:22.395Z,990.7
2017-08-24T09:10:23.373Z,990.7
2017-08-24T09:11:24.145Z,990.8
2017-08-24T09:12:25.055Z,990.8
2017-08-24T09:13:26.149Z,990.8
2017-08-24T09:14:27.111Z,990.8
2017-08-24T09:15:28.193Z,990.8
2017-08-24T09:16:29.168Z,990.8
2017-08-24T09:17:29.877Z,990.8
2017-08-24T09:18:31.065Z,990.8
2017-08-24T09:19:32.060Z,990.8
2017-08-24T09:20:32.873Z,990.8
2017-08-24T09:21:33.627Z,990.9
2017-08-24T09:22:34.332Z,990.8
2017-08-24T09:23:35.275Z,990.8
2017-08-24T09:24:36.101Z,990.8
2017-08-24T09:25:36.930Z,990.8
2017-08-24T09:26:37.632Z,990.8
2017-08-24T09:27:38.761Z,990.8
2017-08-24T09:28:39.496Z,990.9
2017-08-24T09:29:40.251Z,990.8
2017-08-24T09:30:41.016Z,990.8
2017-08-24T09:31:41.715Z,990.8
2017-08-24T09:32:42.500Z,990.8
2017-08-24T09:33:43.291Z,990.8
2017-08-24T09:34:43.967Z,990.8
2017-08-24T09:35:44.719Z,990.8
2017-08-24T09:36:45.691Z,990.8
2017-08-24T09:37:46.515Z,990.8
2017-08-24T09:38:47.209Z,990.8
2017-08-24T09:39:48.045Z,990.8
2017-08-24T09:40:48.794Z,990.8
2017-08-24T09:41:49.485Z,990.8
2017-08-24T09:42:50.239Z,990.9
2017-08-24T09:43:50.994Z,990.9
2017-08-24T09:44:51.861Z,990.8
2017-08-24T09:45:52.726Z,990.8
2017-08-24T09:46:53.529Z,990.8
2017-08-24T09:47:54.253Z,990.8
2017-08-24T09:48:54.995Z,990.8
2017-08-24T09:49:55.719Z,990.8
2017-08-24T09:50:56.706Z,990.9
2017-08-24T09:51:57.519Z,990.9
2017-08-24T09:52:58.209Z,990.9
2017-08-24T09:53:59.124Z,990.9
2017-08-24T09:55:00.118Z,990.9
2017-08-24T09:59:47.840Z,990.9
2017-08-24T10:00:48.621Z,990.9
2017-08-24T10:01:49.442Z,990.9
2017-08-24T10:02:50.208Z,990.9
2017-08-24T10:03:50.874Z,990.9
2017-08-24T10:04:51.631Z,990.9
2017-08-24T10:05:52.473Z,990.9
2017-08-24T10:06:53.191Z,990.9
2017-08-24T10:07:53.951Z,990.9
2017-08-24T10:08:54.947Z,990.9
2017-08-24T10:09:55.639Z,990.9
2017-08-24T10:10:56.384Z,990.9
2017-08-24T10:11:57.367Z,990.9
2017-08-24T10:12:58.221Z,990.8
2017-08-24T10:13:59.469Z,990.8
2017-08-24T10:15:00.245Z,990.8
2017-08-24T10:16:01.011Z,990.8
2017-08-24T10:17:01.780Z,990.8
2017-08-24T10:18:02.626Z,990.8
2017-08-24T10:19:03.553Z,990.8
2017-08-24T10:20:04.488Z,990.8
2017-08-24T10:21:05.453Z,990.8
2017-08-24T10:22:06.191Z,990.8
2017-08-24T10:23:07.144Z,990.8
2017-08-24T10:24:07.925Z,990.8
2017-08-24T10:25:08.752Z,990.8
2017-08-24T10:26:09.462Z,990.8
2017-08-24T10:27:10.251Z,990.8
2017-08-24T10:28:11.065Z,990.8
2017-08-24T10:29:11.979Z,990.8
2017-08-24T10:30:12.839Z,990.8
2017-08-24T10:31:13.811Z,990.8
2017-08-24T10:32:14.478Z,990.8
2017-08-24T10:33:15.292Z,990.8
2017-08-24T10:34:16.048Z,990.8
2017-08-24T10:35:16.861Z,990.8
2017-08-24T10:36:17.595Z,990.8
2017-08-24T10:37:18.580Z,990.8
2017-08-24T10:38:19.318Z,990.8
2017-08-24T10:39:20.050Z,990.8
2017-08-24T10:40:20.792Z,990.8
2017-08-24T10:41:21.609Z,990.8
2017-08-24T10:42:22.389Z,990.8
2017-08-24T10:43:23.536Z,990.8
2017-08-24T10:44:24.464Z,990.8
2017-08-24T10:45:25.330Z,990.8
2017-08-24T10:46:26.524Z,990.7
2017-08-24T10:47:27.484Z,990.7
2017-08-24T10:48:28.251Z,990.7
2017-08-24T10:49:28.932Z,990.7
2017-08-24T10:50:29.695Z,990.7
2017-08-24T10:51:30.453Z,990.7
2017-08-24T10:52:31.184Z,990.7
2017-08-24T10:53:32.025Z,990.7
2017-08-24T10:54:32.909Z,990.7
2017-08-24T10:56:49.322Z,990.7
2017-08-24T10:57:50.045Z,990.7
2017-08-24T10:58:50.879Z,990.7
2017-08-24T10:59:51.574Z,990.7
2017-08-24T11:00:52.525Z,990.8
2017-08-24T11:01:53.362Z,990.8
2017-08-24T11:02:54.259Z,990.7
2017-08-24T11:03:55.147Z,990.8
2017-08-24T11:04:55.835Z,990.8
2017-08-24T11:05:56.572Z,990.8
2017-08-24T11:06:57.342Z,990.8
2017-08-24T11:07:58.080Z,990.8
2017-08-24T11:08:59.016Z,990.8
2017-08-24T11:09:59.757Z,990.8
2017-08-24T11:11:00.542Z,990.8
2017-08-24T11:12:01.319Z,990.8
2017-08-24T11:13:02.104Z,990.8
2017-08-24T11:14:02.900Z,990.8
2017-08-24T11:15:03.707Z,990.8
2017-08-24T11:16:04.583Z,990.8
2017-08-24T11:17:05.511Z,990.9
2017-08-24T11:19:21.857Z,990.9
2017-08-24T11:20:22.784Z,990.9
2017-08-24T11:21:23.546Z,990.9
2017-08-24T11:22:24.292Z,990.9
2017-08-24T11:23:25.067Z,990.8
2017-08-24T11:24:26.089Z,990.8
2017-08-24T11:25:26.825Z,990.8
2017-08-24T11:26:27.656Z,990.9
2017-08-24T11:28:43.936Z,990.9
2017-08-24T11:29:44.963Z,990.9
2017-08-24T11:30:46.143Z,990.9
2017-08-24T11:31:47.588Z,990.9
2017-08-24T11:32:48.350Z,990.9
2017-08-24T11:33:49.105Z,990.9
2017-08-24T11:34:49.964Z,990.9
2017-08-24T11:37:06.560Z,990.9
2017-08-24T11:38:07.301Z,991.0
2017-08-24T11:39:08.025Z,990.9
2017-08-24T11:40:08.769Z,990.9
2017-08-24T11:41:09.533Z,991.0
2017-08-24T11:42:10.434Z,991.0
2017-08-24T11:43:11.174Z,991.0
2017-08-24T11:44:11.901Z,991.0
2017-08-24T11:45:12.754Z,991.0
2017-08-24T11:46:13.553Z,991.0
2017-08-24T11:47:14.277Z,991.0
2017-08-24T11:48:15.015Z,991.0
2017-08-24T11:49:15.803Z,991.0
2017-08-24T11:50:16.492Z,991.0
2017-08-24T11:51:17.250Z,991.0
2017-08-24T11:52:17.995Z,991.0
2017-08-24T11:53:18.968Z,991.0
2017-08-24T11:54:19.748Z,991.0
2017-08-24T11:55:20.446Z,991.0
2017-08-24T11:56:21.612Z,991.0
2017-08-24T11:57:22.420Z,991.0
2017-08-24T11:58:23.126Z,991.0
2017-08-24T11:59:24.027Z,991.0
2017-08-24T12:00:24.829Z,991.0
2017-08-24T12:01:25.583Z,991.0
2017-08-24T12:02:26.355Z,991.0
2017-08-24T12:03:27.155Z,991.0
2017-08-24T12:04:28.078Z,991.0
2017-08-24T12:05:29.021Z,991.0
2017-08-24T12:06:29.799Z,991.0
2017-08-24T12:07:30.548Z,991.0
2017-08-24T12:08:31.351Z,991.0
2017-08-24T12:09:32.087Z,991.1
2017-08-24T12:10:32.804Z,991.0
2017-08-24T12:11:33.751Z,991.0
2017-08-24T12:12:34.465Z,991.0
2017-08-24T12:13:35.251Z,991.0
2017-08-24T12:14:36.018Z,991.0
2017-08-24T12:15:36.776Z,991.0
2017-08-24T12:16:37.542Z,990.9
2017-08-24T12:17:38.352Z,991.0
2017-08-24T12:18:39.255Z,990.9
2017-08-24T12:19:40.192Z,991.0
2017-08-24T12:20:41.214Z,991.0
2017-08-24T12:21:42.015Z,991.0
2017-08-24T12:22:42.759Z,991.0
2017-08-24T12:23:43.581Z,991.0
2017-08-24T12:24:44.270Z,991.0
2017-08-24T12:25:45.049Z,991.0
2017-08-24T12:26:45.809Z,991.0
2017-08-24T12:27:46.591Z,991.0
2017-08-24T12:28:47.317Z,990.9
2017-08-24T12:29:48.283Z,991.0
2017-08-24T12:30:49.961Z,991.0
2017-08-24T12:31:50.669Z,991.0
2017-08-24T12:32:51.802Z,990.9
2017-08-24T12:33:52.541Z,990.9
2017-08-24T12:34:53.293Z,990.9
2017-08-24T12:35:54.240Z,991.0
2017-08-24T12:36:55.007Z,990.9
2017-08-24T12:37:55.749Z,991.0
2017-08-24T12:38:56.576Z,991.0
2017-08-24T12:39:57.338Z,991.0
2017-08-24T12:40:58.093Z,991.0
2017-08-24T12:41:59.033Z,991.0
2017-08-24T12:42:59.775Z,991.0
2017-08-24T12:44:00.603Z,991.0
2017-08-24T12:45:01.379Z,991.0
2017-08-24T12:47:17.783Z,991.0
2017-08-24T12:48:18.554Z,991.0
2017-08-24T12:49:19.356Z,990.9
2017-08-24T12:50:20.109Z,990.9
2017-08-24T12:51:20.997Z,990.9
2017-08-24T12:52:21.706Z,991.0
2017-08-24T12:53:22.566Z,991.0
2017-08-24T12:54:23.308Z,991.0
2017-08-24T12:55:24.057Z,991.0
2017-08-24T12:56:24.859Z,991.0
2017-08-24T12:57:25.625Z,991.0
2017-08-24T12:58:26.572Z,991.1
2017-08-24T12:59:27.369Z,991.0
2017-08-24T13:00:28.286Z,991.1
2017-08-24T13:01:29.096Z,991.1
2017-08-24T13:02:30.065Z,991.2
2017-08-24T13:03:30.790Z,991.1
2017-08-24T13:04:31.556Z,991.1
2017-08-24T13:05:32.324Z,991.1
2017-08-24T13:06:33.123Z,991.1
2017-08-24T13:07:33.865Z,991.2
2017-08-24T13:08:34.727Z,991.2
2017-08-24T13:09:35.445Z,991.2
2017-08-24T13:10:36.373Z,991.2
2017-08-24T13:11:37.196Z,991.2
2017-08-24T13:12:37.971Z,991.2
2017-08-24T13:13:38.765Z,991.1
2017-08-24T13:14:39.560Z,991.1
2017-08-24T13:15:40.540Z,991.1
2017-08-24T13:16:41.237Z,991.1
2017-08-24T13:17:42.066Z,991.1
2017-08-24T13:18:42.756Z,991.1
2017-08-24T13:19:43.487Z,991.1
2017-08-24T13:20:44.745Z,991.1